Terminal Aerodrome Forecast
Issued by NWS Shreveport, LA

Current Version | Previous Version | Text Only | Print | Product List | Glossary On
Versions: 1 2 3 4 5 6 7 8 9 10 11 12
000
FTUS44 KSHV 041134
TAFTYR
TAF
KTYR 041134Z 0412/0512 19004KT P6SM BKN250
     FM041500 22007KT P6SM BKN250
     FM041700 17007KT P6SM SCT060 SCT250
     FM050100 16006KT P6SM BKN250=

USA.gov is the U.S. government's official web portal to all federal, state and local government web resources and services.